sensor_id;sensor_type;location;lat;lon;timestamp;P1;durP1;ratioP1;P2;durP2;ratioP2
37593;SDS011;23441;50.856;6.076;2023-11-21T00:00:43;37.35;;;17.70;;
37593;SDS011;23441;50.856;6.076;2023-11-21T00:03:31;50.50;;;18.60;;
37593;SDS011;23441;50.856;6.076;2023-11-21T00:06:17;39.63;;;18.20;;
37593;SDS011;23441;50.856;6.076;2023-11-21T00:09:03;33.65;;;16.90;;
37593;SDS011;23441;50.856;6.076;2023-11-21T00:11:50;36.67;;;18.25;;
37593;SDS011;23441;50.856;6.076;2023-11-21T00:14:36;38.28;;;17.65;;
37593;SDS011;23441;50.856;6.076;2023-11-21T00:17:23;58.63;;;18.17;;
37593;SDS011;23441;50.856;6.076;2023-11-21T00:20:09;65.38;;;18.27;;
37593;SDS011;23441;50.856;6.076;2023-11-21T00:22:58;79.65;;;20.65;;
37593;SDS011;23441;50.856;6.076;2023-11-21T00:25:44;110.38;;;20.90;;
37593;SDS011;23441;50.856;6.076;2023-11-21T00:28:30;79.10;;;19.55;;
37593;SDS011;23441;50.856;6.076;2023-11-21T00:31:16;49.17;;;19.50;;
37593;SDS011;23441;50.856;6.076;2023-11-21T00:34:03;51.65;;;18.05;;
37593;SDS011;23441;50.856;6.076;2023-11-21T00:36:50;44.83;;;19.45;;
37593;SDS011;23441;50.856;6.076;2023-11-21T00:39:36;41.28;;;19.27;;
37593;SDS011;23441;50.856;6.076;2023-11-21T00:42:22;38.20;;;19.15;;
37593;SDS011;23441;50.856;6.076;2023-11-21T00:45:09;42.22;;;20.27;;
37593;SDS011;23441;50.856;6.076;2023-11-21T00:47:55;36.85;;;19.58;;
37593;SDS011;23441;50.856;6.076;2023-11-21T00:50:43;38.30;;;20.45;;
37593;SDS011;23441;50.856;6.076;2023-11-21T00:53:29;46.42;;;20.58;;
37593;SDS011;23441;50.856;6.076;2023-11-21T00:56:15;38.00;;;20.05;;
37593;SDS011;23441;50.856;6.076;2023-11-21T00:59:01;36.53;;;18.92;;
37593;SDS011;23441;50.856;6.076;2023-11-21T01:01:47;38.55;;;20.45;;
37593;SDS011;23441;50.856;6.076;2023-11-21T01:04:33;35.67;;;19.77;;
37593;SDS011;23441;50.856;6.076;2023-11-21T01:07:19;39.92;;;20.27;;
37593;SDS011;23441;50.856;6.076;2023-11-21T01:10:06;39.15;;;20.73;;
37593;SDS011;23441;50.856;6.076;2023-11-21T01:12:53;42.67;;;21.52;;
37593;SDS011;23441;50.856;6.076;2023-11-21T01:15:39;41.65;;;21.40;;
37593;SDS011;23441;50.856;6.076;2023-11-21T01:18:25;39.58;;;20.42;;
37593;SDS011;23441;50.856;6.076;2023-11-21T01:21:11;38.72;;;19.60;;
37593;SDS011;23441;50.856;6.076;2023-11-21T01:23:57;32.63;;;18.20;;
37593;SDS011;23441;50.856;6.076;2023-11-21T01:26:43;34.10;;;20.15;;
37593;SDS011;23441;50.856;6.076;2023-11-21T01:29:31;34.88;;;19.77;;
37593;SDS011;23441;50.856;6.076;2023-11-21T01:32:17;37.83;;;20.00;;
37593;SDS011;23441;50.856;6.076;2023-11-21T01:35:03;43.15;;;20.73;;
37593;SDS011;23441;50.856;6.076;2023-11-21T01:37:51;41.60;;;20.55;;
37593;SDS011;23441;50.856;6.076;2023-11-21T01:40:37;41.00;;;21.38;;
37593;SDS011;23441;50.856;6.076;2023-11-21T01:43:23;41.90;;;20.60;;
37593;SDS011;23441;50.856;6.076;2023-11-21T01:46:09;44.40;;;21.13;;
37593;SDS011;23441;50.856;6.076;2023-11-21T01:48:55;40.20;;;20.23;;
37593;SDS011;23441;50.856;6.076;2023-11-21T01:51:41;39.70;;;19.70;;
37593;SDS011;23441;50.856;6.076;2023-11-21T01:54:30;41.10;;;19.60;;
37593;SDS011;23441;50.856;6.076;2023-11-21T01:57:16;38.03;;;19.75;;
37593;SDS011;23441;50.856;6.076;2023-11-21T02:00:04;41.88;;;19.08;;
37593;SDS011;23441;50.856;6.076;2023-11-21T02:03:00;38.60;;;18.83;;
37593;SDS011;23441;50.856;6.076;2023-11-21T02:05:46;44.28;;;20.10;;
37593;SDS011;23441;50.856;6.076;2023-11-21T02:08:32;41.00;;;19.88;;
37593;SDS011;23441;50.856;6.076;2023-11-21T02:11:18;36.25;;;19.02;;
37593;SDS011;23441;50.856;6.076;2023-11-21T02:14:04;39.90;;;18.00;;
37593;SDS011;23441;50.856;6.076;2023-11-21T02:16:53;36.22;;;18.65;;
37593;SDS011;23441;50.856;6.076;2023-11-21T02:19:39;43.50;;;19.73;;
37593;SDS011;23441;50.856;6.076;2023-11-21T02:22:26;35.58;;;19.15;;
37593;SDS011;23441;50.856;6.076;2023-11-21T02:25:16;36.80;;;20.77;;
37593;SDS011;23441;50.856;6.076;2023-11-21T02:28:03;44.38;;;20.67;;
37593;SDS011;23441;50.856;6.076;2023-11-21T02:30:49;41.17;;;19.15;;
37593;SDS011;23441;50.856;6.076;2023-11-21T02:33:40;36.05;;;18.95;;
37593;SDS011;23441;50.856;6.076;2023-11-21T02:36:26;34.78;;;18.83;;
37593;SDS011;23441;50.856;6.076;2023-11-21T02:39:12;39.97;;;19.30;;
37593;SDS011;23441;50.856;6.076;2023-11-21T02:41:58;39.67;;;19.60;;
37593;SDS011;23441;50.856;6.076;2023-11-21T02:44:44;42.25;;;21.45;;
37593;SDS011;23441;50.856;6.076;2023-11-21T02:47:30;39.70;;;20.67;;
37593;SDS011;23441;50.856;6.076;2023-11-21T02:50:16;44.88;;;22.10;;
37593;SDS011;23441;50.856;6.076;2023-11-21T02:53:04;50.72;;;22.48;;
37593;SDS011;23441;50.856;6.076;2023-11-21T02:55:53;43.75;;;21.58;;
37593;SDS011;23441;50.856;6.076;2023-11-21T02:58:41;44.10;;;20.27;;
37593;SDS011;23441;50.856;6.076;2023-11-21T03:01:31;38.70;;;20.20;;
37593;SDS011;23441;50.856;6.076;2023-11-21T03:04:17;37.38;;;20.27;;
37593;SDS011;23441;50.856;6.076;2023-11-21T03:07:03;40.28;;;19.85;;
37593;SDS011;23441;50.856;6.076;2023-11-21T03:09:50;41.20;;;20.40;;
37593;SDS011;23441;50.856;6.076;2023-11-21T03:12:37;47.35;;;20.05;;
37593;SDS011;23441;50.856;6.076;2023-11-21T03:15:23;40.90;;;20.45;;
37593;SDS011;23441;50.856;6.076;2023-11-21T03:18:09;38.10;;;19.08;;
37593;SDS011;23441;50.856;6.076;2023-11-21T03:20:55;41.10;;;19.33;;
37593;SDS011;23441;50.856;6.076;2023-11-21T03:23:41;42.67;;;18.50;;
37593;SDS011;23441;50.856;6.076;2023-11-21T03:26:26;47.17;;;19.73;;
37593;SDS011;23441;50.856;6.076;2023-11-21T03:29:12;38.20;;;17.83;;
37593;SDS011;23441;50.856;6.076;2023-11-21T03:31:58;39.75;;;17.92;;
37593;SDS011;23441;50.856;6.076;2023-11-21T03:34:54;41.55;;;17.80;;
37593;SDS011;23441;50.856;6.076;2023-11-21T03:37:41;34.97;;;17.05;;
37593;SDS011;23441;50.856;6.076;2023-11-21T03:40:29;40.92;;;18.30;;
37593;SDS011;23441;50.856;6.076;2023-11-21T03:43:16;41.00;;;18.10;;
37593;SDS011;23441;50.856;6.076;2023-11-21T03:46:03;45.40;;;19.33;;
37593;SDS011;23441;50.856;6.076;2023-11-21T03:48:49;42.17;;;18.60;;
37593;SDS011;23441;50.856;6.076;2023-11-21T03:51:34;46.40;;;19.65;;
37593;SDS011;23441;50.856;6.076;2023-11-21T03:54:20;41.60;;;17.77;;
37593;SDS011;23441;50.856;6.076;2023-11-21T03:57:06;46.22;;;17.83;;
37593;SDS011;23441;50.856;6.076;2023-11-21T03:59:53;43.70;;;17.80;;
37593;SDS011;23441;50.856;6.076;2023-11-21T04:02:39;45.08;;;17.45;;
37593;SDS011;23441;50.856;6.076;2023-11-21T04:05:25;42.28;;;17.13;;
37593;SDS011;23441;50.856;6.076;2023-11-21T04:08:11;49.42;;;18.10;;
37593;SDS011;23441;50.856;6.076;2023-11-21T04:10:57;45.20;;;18.13;;
37593;SDS011;23441;50.856;6.076;2023-11-21T04:13:43;48.35;;;18.42;;
37593;SDS011;23441;50.856;6.076;2023-11-21T04:16:29;41.80;;;17.45;;
37593;SDS011;23441;50.856;6.076;2023-11-21T04:19:15;49.85;;;18.13;;
37593;SDS011;23441;50.856;6.076;2023-11-21T04:22:02;42.22;;;17.08;;
37593;SDS011;23441;50.856;6.076;2023-11-21T04:24:49;46.97;;;18.75;;
37593;SDS011;23441;50.856;6.076;2023-11-21T04:27:35;46.28;;;18.20;;
37593;SDS011;23441;50.856;6.076;2023-11-21T04:30:21;40.97;;;17.15;;
37593;SDS011;23441;50.856;6.076;2023-11-21T04:33:07;44.03;;;17.40;;
37593;SDS011;23441;50.856;6.076;2023-11-21T04:35:53;41.05;;;17.73;;
37593;SDS011;23441;50.856;6.076;2023-11-21T04:38:39;48.85;;;18.77;;
37593;SDS011;23441;50.856;6.076;2023-11-21T04:41:25;40.50;;;17.33;;
37593;SDS011;23441;50.856;6.076;2023-11-21T04:44:10;46.97;;;17.85;;
37593;SDS011;23441;50.856;6.076;2023-11-21T04:46:56;43.72;;;17.45;;
37593;SDS011;23441;50.856;6.076;2023-11-21T04:49:42;48.38;;;18.73;;
37593;SDS011;23441;50.856;6.076;2023-11-21T04:52:29;47.53;;;18.23;;
37593;SDS011;23441;50.856;6.076;2023-11-21T04:55:15;45.45;;;17.65;;
37593;SDS011;23441;50.856;6.076;2023-11-21T04:58:01;43.00;;;18.00;;
37593;SDS011;23441;50.856;6.076;2023-11-21T05:00:47;52.30;;;18.98;;
37593;SDS011;23441;50.856;6.076;2023-11-21T05:03:33;48.28;;;18.38;;
37593;SDS011;23441;50.856;6.076;2023-11-21T05:06:19;57.70;;;17.88;;
37593;SDS011;23441;50.856;6.076;2023-11-21T05:09:05;46.85;;;17.38;;
37593;SDS011;23441;50.856;6.076;2023-11-21T05:11:51;49.72;;;18.60;;
37593;SDS011;23441;50.856;6.076;2023-11-21T05:14:38;54.13;;;17.95;;
37593;SDS011;23441;50.856;6.076;2023-11-21T05:17:24;50.83;;;19.20;;
37593;SDS011;23441;50.856;6.076;2023-11-21T05:20:10;44.25;;;17.55;;
37593;SDS011;23441;50.856;6.076;2023-11-21T05:22:58;52.03;;;18.27;;
37593;SDS011;23441;50.856;6.076;2023-11-21T05:25:44;51.97;;;18.77;;
37593;SDS011;23441;50.856;6.076;2023-11-21T05:28:31;52.35;;;19.33;;
37593;SDS011;23441;50.856;6.076;2023-11-21T05:31:17;52.67;;;18.67;;
37593;SDS011;23441;50.856;6.076;2023-11-21T05:34:03;51.03;;;17.90;;
37593;SDS011;23441;50.856;6.076;2023-11-21T05:36:50;48.28;;;16.65;;
37593;SDS011;23441;50.856;6.076;2023-11-21T05:39:36;55.63;;;18.67;;
37593;SDS011;23441;50.856;6.076;2023-11-21T05:42:22;53.28;;;18.08;;
37593;SDS011;23441;50.856;6.076;2023-11-21T05:45:08;55.70;;;17.60;;
37593;SDS011;23441;50.856;6.076;2023-11-21T05:47:55;51.53;;;18.13;;
37593;SDS011;23441;50.856;6.076;2023-11-21T05:50:42;51.47;;;18.73;;
37593;SDS011;23441;50.856;6.076;2023-11-21T05:53:28;50.15;;;17.83;;
37593;SDS011;23441;50.856;6.076;2023-11-21T05:56:14;45.83;;;17.70;;
37593;SDS011;23441;50.856;6.076;2023-11-21T05:59:00;51.45;;;18.35;;
37593;SDS011;23441;50.856;6.076;2023-11-21T06:01:47;51.30;;;19.40;;
37593;SDS011;23441;50.856;6.076;2023-11-21T06:04:33;58.38;;;19.85;;
37593;SDS011;23441;50.856;6.076;2023-11-21T06:07:19;62.08;;;19.40;;
37593;SDS011;23441;50.856;6.076;2023-11-21T06:10:05;57.00;;;20.58;;
37593;SDS011;23441;50.856;6.076;2023-11-21T06:12:55;52.88;;;20.75;;
37593;SDS011;23441;50.856;6.076;2023-11-21T06:15:43;55.42;;;19.52;;
37593;SDS011;23441;50.856;6.076;2023-11-21T06:18:29;55.85;;;19.23;;
37593;SDS011;23441;50.856;6.076;2023-11-21T06:21:15;50.20;;;18.85;;
37593;SDS011;23441;50.856;6.076;2023-11-21T06:24:02;54.22;;;21.13;;
37593;SDS011;23441;50.856;6.076;2023-11-21T06:26:48;58.58;;;20.80;;
37593;SDS011;23441;50.856;6.076;2023-11-21T06:29:34;59.38;;;22.23;;
37593;SDS011;23441;50.856;6.076;2023-11-21T06:32:20;62.80;;;21.75;;
37593;SDS011;23441;50.856;6.076;2023-11-21T06:35:08;61.55;;;21.95;;
37593;SDS011;23441;50.856;6.076;2023-11-21T06:37:55;59.58;;;21.75;;
37593;SDS011;23441;50.856;6.076;2023-11-21T06:40:41;52.75;;;21.15;;
37593;SDS011;23441;50.856;6.076;2023-11-21T06:43:27;59.92;;;20.77;;
37593;SDS011;23441;50.856;6.076;2023-11-21T06:46:13;56.17;;;22.63;;
37593;SDS011;23441;50.856;6.076;2023-11-21T06:49:00;57.92;;;22.30;;
37593;SDS011;23441;50.856;6.076;2023-11-21T06:51:46;55.13;;;21.70;;
37593;SDS011;23441;50.856;6.076;2023-11-21T06:54:32;55.55;;;21.48;;
37593;SDS011;23441;50.856;6.076;2023-11-21T06:57:18;62.97;;;22.25;;
37593;SDS011;23441;50.856;6.076;2023-11-21T07:00:04;57.85;;;21.50;;
37593;SDS011;23441;50.856;6.076;2023-11-21T07:02:51;63.63;;;23.75;;
37593;SDS011;23441;50.856;6.076;2023-11-21T07:05:37;70.03;;;23.48;;
37593;SDS011;23441;50.856;6.076;2023-11-21T07:08:23;68.90;;;24.27;;
37593;SDS011;23441;50.856;6.076;2023-11-21T07:11:09;76.00;;;25.10;;
37593;SDS011;23441;50.856;6.076;2023-11-21T07:13:55;71.13;;;23.65;;
37593;SDS011;23441;50.856;6.076;2023-11-21T07:16:41;81.82;;;24.08;;
37593;SDS011;23441;50.856;6.076;2023-11-21T07:19:27;77.93;;;24.95;;
37593;SDS011;23441;50.856;6.076;2023-11-21T07:22:13;85.75;;;24.13;;
37593;SDS011;23441;50.856;6.076;2023-11-21T07:24:59;78.65;;;23.83;;
37593;SDS011;23441;50.856;6.076;2023-11-21T07:27:45;91.38;;;26.25;;
37593;SDS011;23441;50.856;6.076;2023-11-21T07:30:31;92.35;;;25.23;;
37593;SDS011;23441;50.856;6.076;2023-11-21T07:33:17;88.97;;;24.27;;
37593;SDS011;23441;50.856;6.076;2023-11-21T07:36:04;86.40;;;23.60;;
37593;SDS011;23441;50.856;6.076;2023-11-21T07:38:50;105.43;;;25.13;;
37593;SDS011;23441;50.856;6.076;2023-11-21T07:41:36;98.03;;;23.75;;
37593;SDS011;23441;50.856;6.076;2023-11-21T07:44:23;78.55;;;23.05;;
37593;SDS011;23441;50.856;6.076;2023-11-21T07:47:09;98.75;;;25.00;;
37593;SDS011;23441;50.856;6.076;2023-11-21T07:49:55;97.68;;;24.38;;
37593;SDS011;23441;50.856;6.076;2023-11-21T07:52:41;101.55;;;22.25;;
37593;SDS011;23441;50.856;6.076;2023-11-21T07:55:27;103.68;;;24.80;;
37593;SDS011;23441;50.856;6.076;2023-11-21T07:58:13;112.95;;;24.92;;
37593;SDS011;23441;50.856;6.076;2023-11-21T08:00:59;100.85;;;24.48;;
37593;SDS011;23441;50.856;6.076;2023-11-21T08:03:45;91.10;;;23.20;;
37593;SDS011;23441;50.856;6.076;2023-11-21T08:06:32;97.72;;;22.88;;
37593;SDS011;23441;50.856;6.076;2023-11-21T08:09:18;92.55;;;21.63;;
37593;SDS011;23441;50.856;6.076;2023-11-21T08:12:04;87.75;;;22.02;;
37593;SDS011;23441;50.856;6.076;2023-11-21T08:14:50;92.50;;;22.60;;
37593;SDS011;23441;50.856;6.076;2023-11-21T08:17:36;84.80;;;22.42;;
37593;SDS011;23441;50.856;6.076;2023-11-21T08:20:22;81.78;;;21.40;;
37593;SDS011;23441;50.856;6.076;2023-11-21T08:23:09;97.68;;;23.13;;
37593;SDS011;23441;50.856;6.076;2023-11-21T08:25:55;104.63;;;23.20;;
37593;SDS011;23441;50.856;6.076;2023-11-21T08:28:41;88.75;;;21.90;;
37593;SDS011;23441;50.856;6.076;2023-11-21T08:31:27;86.38;;;20.80;;
37593;SDS011;23441;50.856;6.076;2023-11-21T08:34:14;89.35;;;22.45;;
37593;SDS011;23441;50.856;6.076;2023-11-21T08:37:00;85.85;;;21.00;;
37593;SDS011;23441;50.856;6.076;2023-11-21T08:39:47;100.50;;;23.55;;
37593;SDS011;23441;50.856;6.076;2023-11-21T08:42:33;101.72;;;23.92;;
37593;SDS011;23441;50.856;6.076;2023-11-21T08:45:19;98.53;;;24.48;;
37593;SDS011;23441;50.856;6.076;2023-11-21T08:48:07;93.93;;;23.88;;
37593;SDS011;23441;50.856;6.076;2023-11-21T08:50:53;102.68;;;23.35;;
37593;SDS011;23441;50.856;6.076;2023-11-21T08:53:39;85.50;;;21.25;;
37593;SDS011;23441;50.856;6.076;2023-11-21T08:56:25;88.32;;;24.17;;
37593;SDS011;23441;50.856;6.076;2023-11-21T08:59:12;92.30;;;24.90;;
37593;SDS011;23441;50.856;6.076;2023-11-21T09:01:59;83.20;;;21.25;;
37593;SDS011;23441;50.856;6.076;2023-11-21T09:04:45;83.20;;;22.83;;
37593;SDS011;23441;50.856;6.076;2023-11-21T09:07:31;82.85;;;21.70;;
37593;SDS011;23441;50.856;6.076;2023-11-21T09:10:17;96.82;;;24.38;;
37593;SDS011;23441;50.856;6.076;2023-11-21T09:13:03;80.38;;;22.58;;
37593;SDS011;23441;50.856;6.076;2023-11-21T09:15:50;64.40;;;21.83;;
37593;SDS011;23441;50.856;6.076;2023-11-21T09:18:36;78.03;;;21.65;;
37593;SDS011;23441;50.856;6.076;2023-11-21T09:21:22;70.05;;;21.38;;
37593;SDS011;23441;50.856;6.076;2023-11-21T09:24:09;72.25;;;22.02;;
37593;SDS011;23441;50.856;6.076;2023-11-21T09:26:55;64.18;;;19.33;;
37593;SDS011;23441;50.856;6.076;2023-11-21T09:29:41;73.20;;;20.65;;
37593;SDS011;23441;50.856;6.076;2023-11-21T09:32:26;75.30;;;20.40;;
37593;SDS011;23441;50.856;6.076;2023-11-21T09:35:13;63.50;;;21.33;;
37593;SDS011;23441;50.856;6.076;2023-11-21T09:37:59;62.92;;;19.75;;
37593;SDS011;23441;50.856;6.076;2023-11-21T09:40:47;67.65;;;21.20;;
37593;SDS011;23441;50.856;6.076;2023-11-21T09:43:33;60.33;;;20.27;;
37593;SDS011;23441;50.856;6.076;2023-11-21T09:46:19;60.92;;;20.25;;
37593;SDS011;23441;50.856;6.076;2023-11-21T09:49:09;60.90;;;20.42;;
37593;SDS011;23441;50.856;6.076;2023-11-21T09:51:58;68.25;;;18.80;;
37593;SDS011;23441;50.856;6.076;2023-11-21T09:54:49;62.72;;;19.58;;
37593;SDS011;23441;50.856;6.076;2023-11-21T09:57:36;54.20;;;19.05;;
37593;SDS011;23441;50.856;6.076;2023-11-21T10:00:22;60.40;;;19.08;;
37593;SDS011;23441;50.856;6.076;2023-11-21T10:03:12;56.75;;;19.20;;
37593;SDS011;23441;50.856;6.076;2023-11-21T10:05:59;49.17;;;19.08;;
37593;SDS011;23441;50.856;6.076;2023-11-21T10:08:46;54.78;;;17.50;;
37593;SDS011;23441;50.856;6.076;2023-11-21T10:11:35;41.75;;;16.13;;
37593;SDS011;23441;50.856;6.076;2023-11-21T10:14:23;48.95;;;17.80;;
37593;SDS011;23441;50.856;6.076;2023-11-21T10:17:12;55.17;;;18.42;;
37593;SDS011;23441;50.856;6.076;2023-11-21T10:20:01;46.13;;;17.10;;
37593;SDS011;23441;50.856;6.076;2023-11-21T10:22:51;44.28;;;16.90;;
37593;SDS011;23441;50.856;6.076;2023-11-21T10:25:37;50.13;;;17.10;;
37593;SDS011;23441;50.856;6.076;2023-11-21T10:28:23;52.97;;;17.20;;
37593;SDS011;23441;50.856;6.076;2023-11-21T10:31:09;44.55;;;16.42;;
37593;SDS011;23441;50.856;6.076;2023-11-21T10:34:14;44.95;;;16.90;;
37593;SDS011;23441;50.856;6.076;2023-11-21T10:37:10;41.63;;;17.25;;
37593;SDS011;23441;50.856;6.076;2023-11-21T10:39:58;50.45;;;18.48;;
37593;SDS011;23441;50.856;6.076;2023-11-21T10:42:44;49.88;;;17.17;;
37593;SDS011;23441;50.856;6.076;2023-11-21T10:45:30;51.03;;;17.90;;
37593;SDS011;23441;50.856;6.076;2023-11-21T10:48:16;53.08;;;19.17;;
37593;SDS011;23441;50.856;6.076;2023-11-21T10:51:06;55.05;;;19.02;;
37593;SDS011;23441;50.856;6.076;2023-11-21T10:53:52;56.83;;;20.60;;
37593;SDS011;23441;50.856;6.076;2023-11-21T10:56:39;51.28;;;19.30;;
37593;SDS011;23441;50.856;6.076;2023-11-21T10:59:28;46.25;;;17.83;;
37593;SDS011;23441;50.856;6.076;2023-11-21T11:02:21;40.90;;;15.60;;
37593;SDS011;23441;50.856;6.076;2023-11-21T11:05:13;46.70;;;16.70;;
37593;SDS011;23441;50.856;6.076;2023-11-21T11:08:05;36.97;;;14.50;;
37593;SDS011;23441;50.856;6.076;2023-11-21T11:10:53;41.95;;;15.73;;
37593;SDS011;23441;50.856;6.076;2023-11-21T11:13:42;39.92;;;15.98;;
37593;SDS011;23441;50.856;6.076;2023-11-21T11:16:30;41.72;;;16.65;;
37593;SDS011;23441;50.856;6.076;2023-11-21T11:19:16;46.42;;;15.00;;
37593;SDS011;23441;50.856;6.076;2023-11-21T11:25:25;43.60;;;14.15;;
37593;SDS011;23441;50.856;6.076;2023-11-21T11:28:27;30.33;;;11.77;;
37593;SDS011;23441;50.856;6.076;2023-11-21T11:34:44;34.00;;;12.90;;
37593;SDS011;23441;50.856;6.076;2023-11-21T11:37:51;36.67;;;12.68;;
37593;SDS011;23441;50.856;6.076;2023-11-21T11:40:38;39.08;;;13.40;;
37593;SDS011;23441;50.856;6.076;2023-11-21T11:43:37;37.75;;;13.38;;
37593;SDS011;23441;50.856;6.076;2023-11-21T11:49:27;32.28;;;12.57;;
37593;SDS011;23441;50.856;6.076;2023-11-21T11:52:32;37.97;;;13.27;;
37593;SDS011;23441;50.856;6.076;2023-11-21T11:55:19;34.22;;;12.38;;
37593;SDS011;23441;50.856;6.076;2023-11-21T11:58:08;39.35;;;13.40;;
37593;SDS011;23441;50.856;6.076;2023-11-21T12:00:54;31.55;;;12.15;;
37593;SDS011;23441;50.856;6.076;2023-11-21T12:03:41;32.97;;;11.57;;
37593;SDS011;23441;50.856;6.076;2023-11-21T12:06:32;28.63;;;12.45;;
37593;SDS011;23441;50.856;6.076;2023-11-21T12:09:20;31.67;;;11.95;;
37593;SDS011;23441;50.856;6.076;2023-11-21T12:12:08;32.55;;;13.52;;
37593;SDS011;23441;50.856;6.076;2023-11-21T12:14:54;31.23;;;12.60;;
37593;SDS011;23441;50.856;6.076;2023-11-21T12:17:43;26.95;;;11.00;;
37593;SDS011;23441;50.856;6.076;2023-11-21T12:20:30;31.00;;;11.43;;
37593;SDS011;23441;50.856;6.076;2023-11-21T12:23:16;33.17;;;11.57;;
37593;SDS011;23441;50.856;6.076;2023-11-21T12:26:02;32.38;;;11.45;;
37593;SDS011;23441;50.856;6.076;2023-11-21T12:28:52;33.72;;;11.98;;
37593;SDS011;23441;50.856;6.076;2023-11-21T12:31:43;33.92;;;10.63;;
37593;SDS011;23441;50.856;6.076;2023-11-21T12:34:31;28.80;;;11.20;;
37593;SDS011;23441;50.856;6.076;2023-11-21T12:37:18;33.42;;;11.73;;
37593;SDS011;23441;50.856;6.076;2023-11-21T12:40:05;29.45;;;11.20;;
37593;SDS011;23441;50.856;6.076;2023-11-21T12:43:01;31.33;;;11.38;;
37593;SDS011;23441;50.856;6.076;2023-11-21T12:45:49;27.25;;;11.15;;
37593;SDS011;23441;50.856;6.076;2023-11-21T12:48:38;32.17;;;11.93;;
37593;SDS011;23441;50.856;6.076;2023-11-21T12:51:27;28.88;;;11.23;;
37593;SDS011;23441;50.856;6.076;2023-11-21T12:54:14;26.15;;;11.07;;
37593;SDS011;23441;50.856;6.076;2023-11-21T12:57:01;24.83;;;10.70;;
37593;SDS011;23441;50.856;6.076;2023-11-21T12:59:49;29.85;;;11.43;;
37593;SDS011;23441;50.856;6.076;2023-11-21T13:02:42;25.92;;;10.35;;
37593;SDS011;23441;50.856;6.076;2023-11-21T13:05:29;23.70;;;10.60;;
37593;SDS011;23441;50.856;6.076;2023-11-21T13:08:16;31.25;;;12.38;;
37593;SDS011;23441;50.856;6.076;2023-11-21T13:11:06;26.13;;;12.20;;
37593;SDS011;23441;50.856;6.076;2023-11-21T13:13:52;31.17;;;12.25;;
37593;SDS011;23441;50.856;6.076;2023-11-21T13:16:38;26.65;;;11.20;;
37593;SDS011;23441;50.856;6.076;2023-11-21T13:19:31;30.00;;;12.88;;
37593;SDS011;23441;50.856;6.076;2023-11-21T13:22:16;33.97;;;13.77;;
37593;SDS011;23441;50.856;6.076;2023-11-21T13:25:03;28.00;;;12.50;;
37593;SDS011;23441;50.856;6.076;2023-11-21T13:27:55;34.28;;;13.65;;
37593;SDS011;23441;50.856;6.076;2023-11-21T13:30:42;29.40;;;12.52;;
37593;SDS011;23441;50.856;6.076;2023-11-21T13:33:29;31.25;;;12.25;;
37593;SDS011;23441;50.856;6.076;2023-11-21T13:36:18;31.27;;;14.52;;
37593;SDS011;23441;50.856;6.076;2023-11-21T13:39:07;34.10;;;13.43;;
37593;SDS011;23441;50.856;6.076;2023-11-21T13:42:00;30.98;;;13.50;;
37593;SDS011;23441;50.856;6.076;2023-11-21T13:44:48;32.53;;;13.60;;
37593;SDS011;23441;50.856;6.076;2023-11-21T13:47:37;26.17;;;12.45;;
37593;SDS011;23441;50.856;6.076;2023-11-21T13:50:26;29.85;;;14.00;;
37593;SDS011;23441;50.856;6.076;2023-11-21T13:53:18;26.20;;;11.48;;
37593;SDS011;23441;50.856;6.076;2023-11-21T13:56:07;26.35;;;12.07;;
37593;SDS011;23441;50.856;6.076;2023-11-21T13:58:54;26.00;;;11.05;;
37593;SDS011;23441;50.856;6.076;2023-11-21T14:01:41;23.25;;;12.95;;
37593;SDS011;23441;50.856;6.076;2023-11-21T14:04:39;29.08;;;12.10;;
37593;SDS011;23441;50.856;6.076;2023-11-21T14:07:45;27.45;;;14.18;;
37593;SDS011;23441;50.856;6.076;2023-11-21T14:10:33;33.28;;;14.18;;
37593;SDS011;23441;50.856;6.076;2023-11-21T14:13:35;25.77;;;13.27;;
37593;SDS011;23441;50.856;6.076;2023-11-21T14:16:21;31.67;;;13.40;;
37593;SDS011;23441;50.856;6.076;2023-11-21T14:19:08;29.23;;;13.15;;
37593;SDS011;23441;50.856;6.076;2023-11-21T14:22:01;31.88;;;14.82;;
37593;SDS011;23441;50.856;6.076;2023-11-21T14:24:47;29.80;;;14.02;;
37593;SDS011;23441;50.856;6.076;2023-11-21T14:27:33;30.35;;;14.15;;
37593;SDS011;23441;50.856;6.076;2023-11-21T14:30:19;28.35;;;12.77;;
37593;SDS011;23441;50.856;6.076;2023-11-21T14:33:07;25.52;;;12.90;;
37593;SDS011;23441;50.856;6.076;2023-11-21T14:35:56;25.38;;;12.73;;
37593;SDS011;23441;50.856;6.076;2023-11-21T14:38:43;31.08;;;13.20;;
37593;SDS011;23441;50.856;6.076;2023-11-21T14:41:29;26.33;;;12.05;;
37593;SDS011;23441;50.856;6.076;2023-11-21T14:44:15;28.02;;;12.65;;
37593;SDS011;23441;50.856;6.076;2023-11-21T14:47:01;25.80;;;13.20;;
37593;SDS011;23441;50.856;6.076;2023-11-21T14:49:51;26.85;;;12.07;;
37593;SDS011;23441;50.856;6.076;2023-11-21T14:52:41;24.52;;;11.60;;
37593;SDS011;23441;50.856;6.076;2023-11-21T14:55:40;22.23;;;11.13;;
37593;SDS011;23441;50.856;6.076;2023-11-21T14:58:35;25.98;;;11.43;;
37593;SDS011;23441;50.856;6.076;2023-11-21T15:01:24;23.48;;;10.35;;
37593;SDS011;23441;50.856;6.076;2023-11-21T15:04:28;33.40;;;18.23;;
37593;SDS011;23441;50.856;6.076;2023-11-21T15:07:24;36.05;;;24.02;;
37593;SDS011;23441;50.856;6.076;2023-11-21T15:10:12;24.77;;;16.20;;
37593;SDS011;23441;50.856;6.076;2023-11-21T15:13:00;22.35;;;12.05;;
37593;SDS011;23441;50.856;6.076;2023-11-21T15:15:48;25.63;;;11.90;;
37593;SDS011;23441;50.856;6.076;2023-11-21T15:18:33;26.65;;;11.38;;
37593;SDS011;23441;50.856;6.076;2023-11-21T15:21:20;21.58;;;11.20;;
37593;SDS011;23441;50.856;6.076;2023-11-21T15:24:07;24.60;;;11.95;;
37593;SDS011;23441;50.856;6.076;2023-11-21T15:26:53;24.63;;;10.60;;
37593;SDS011;23441;50.856;6.076;2023-11-21T15:29:39;24.40;;;11.90;;
37593;SDS011;23441;50.856;6.076;2023-11-21T15:32:25;24.60;;;12.13;;
37593;SDS011;23441;50.856;6.076;2023-11-21T15:35:11;19.15;;;11.25;;
37593;SDS011;23441;50.856;6.076;2023-11-21T15:37:59;25.42;;;11.50;;
37593;SDS011;23441;50.856;6.076;2023-11-21T15:40:46;22.88;;;12.15;;
37593;SDS011;23441;50.856;6.076;2023-11-21T15:43:33;22.00;;;11.48;;
37593;SDS011;23441;50.856;6.076;2023-11-21T15:46:18;25.67;;;11.73;;
37593;SDS011;23441;50.856;6.076;2023-11-21T15:49:04;29.67;;;13.73;;
37593;SDS011;23441;50.856;6.076;2023-11-21T15:51:57;25.48;;;13.63;;
37593;SDS011;23441;50.856;6.076;2023-11-21T15:54:44;28.23;;;13.95;;
37593;SDS011;23441;50.856;6.076;2023-11-21T15:57:33;26.08;;;13.45;;
37593;SDS011;23441;50.856;6.076;2023-11-21T16:00:19;28.55;;;13.77;;
37593;SDS011;23441;50.856;6.076;2023-11-21T16:03:07;25.08;;;12.15;;
37593;SDS011;23441;50.856;6.076;2023-11-21T16:05:55;24.15;;;12.40;;
37593;SDS011;23441;50.856;6.076;2023-11-21T16:08:41;29.08;;;12.13;;
37593;SDS011;23441;50.856;6.076;2023-11-21T16:11:27;20.48;;;11.38;;
37593;SDS011;23441;50.856;6.076;2023-11-21T16:14:15;23.60;;;12.10;;
37593;SDS011;23441;50.856;6.076;2023-11-21T16:17:04;26.50;;;13.90;;
37593;SDS011;23441;50.856;6.076;2023-11-21T16:19:53;27.23;;;13.48;;
37593;SDS011;23441;50.856;6.076;2023-11-21T16:22:41;30.33;;;13.32;;
37593;SDS011;23441;50.856;6.076;2023-11-21T16:25:27;26.27;;;13.40;;
37593;SDS011;23441;50.856;6.076;2023-11-21T16:28:13;24.27;;;12.68;;